Time;durP1;ratioP1;P1;durP2;ratioP2;P2;SDS_P1;SDS_P2;PMS_P1;PMS_P2;Temp;Humidity;BMP_temperature;BMP_pressure;BME280_temperature;BME280_humidity;BME280_pressure;Samples;Min_cycle;Max_cycle;Signal;HPM_P1;HPM_P2
2021/05/01 00:00:25;;;;;;;21.50;13.35;;;9.30;95.10;;;;;;4917572;29;540865;-66
2021/05/01 00:02:51;;;;;;;16.55;12.43;;;9.30;95.00;;;;;;4935559;29;20024;-67
2021/05/01 00:05:16;;;;;;;18.05;12.73;;;9.30;95.00;;;;;;4935898;29;20365;-66
2021/05/01 00:07:42;;;;;;;19.63;11.80;;;9.30;94.90;;;;;;4936922;29;20547;-66
2021/05/01 00:10:08;;;;;;;17.17;11.70;;;9.30;94.80;;;;;;4936881;29;20523;-66
2021/05/01 00:12:34;;;;;;;14.57;11.15;;;9.30;94.80;;;;;;4935760;29;20028;-67
2021/05/01 00:15:00;;;;;;;18.83;12.35;;;9.20;94.80;;;;;;4936659;29;20030;-67
2021/05/01 00:17:26;;;;;;;18.38;11.85;;;9.30;94.80;;;;;;4936891;29;20115;-67
2021/05/01 00:19:51;;;;;;;16.42;11.38;;;9.30;94.80;;;;;;4935663;29;20098;-65
2021/05/01 00:22:17;;;;;;;21.58;12.30;;;9.20;94.60;;;;;;4936703;29;20090;-65
2021/05/01 00:24:43;;;;;;;14.85;11.02;;;9.20;94.60;;;;;;4936373;29;20031;-65
2021/05/01 00:27:08;;;;;;;20.58;12.68;;;9.20;94.50;;;;;;4936019;29;20027;-65
2021/05/01 00:29:34;;;;;;;16.50;12.07;;;9.10;94.40;;;;;;4936039;29;20385;-65
2021/05/01 00:31:59;;;;;;;21.15;13.50;;;9.00;94.40;;;;;;4936299;29;20381;-66
2021/05/01 00:34:25;;;;;;;16.42;13.15;;;8.90;94.40;;;;;;4936673;29;20032;-66
2021/05/01 00:36:50;;;;;;;20.10;13.13;;;8.90;94.50;;;;;;4936250;29;20059;-66
2021/05/01 00:39:16;;;;;;;18.35;14.00;;;8.90;94.60;;;;;;4934467;29;20055;-65
2021/05/01 00:41:45;;;;;;;17.58;13.63;;;8.90;94.60;;;;;;4936086;29;20142;-66
2021/05/01 00:44:11;;;;;;;23.45;15.88;;;8.90;94.60;;;;;;4936161;29;20464;-66
2021/05/01 00:46:36;;;;;;;22.40;16.17;;;8.80;94.60;;;;;;4935359;29;20058;-66
2021/05/01 00:49:02;;;;;;;20.27;16.58;;;8.80;94.80;;;;;;4936191;29;20082;-67
2021/05/01 00:51:27;;;;;;;19.70;15.82;;;8.70;94.70;;;;;;4936222;29;20027;-66
2021/05/01 00:53:53;;;;;;;23.30;16.30;;;8.70;94.80;;;;;;4933860;29;20066;-66
2021/05/01 00:56:18;;;;;;;20.63;16.73;;;8.70;94.70;;;;;;4936158;29;20075;-66
2021/05/01 00:58:44;;;;;;;21.35;16.58;;;8.60;94.70;;;;;;4935771;29;20028;-66
2021/05/01 01:03:37;;;;;;;19.95;17.73;;;8.70;94.80;;;;;;4935851;29;20023;-66
2021/05/01 01:06:04;;;;;;;25.35;17.25;;;8.70;94.80;;;;;;4935906;29;20024;-66
2021/05/01 01:08:30;;;;;;;21.55;17.27;;;8.70;94.70;;;;;;4935167;29;20358;-66
2021/05/01 01:10:55;;;;;;;20.58;17.13;;;8.80;94.70;;;;;;4934607;29;20016;-66
2021/05/01 01:13:22;;;;;;;20.75;16.40;;;8.80;94.70;;;;;;4935895;29;20039;-67
2021/05/01 01:15:47;;;;;;;20.55;16.42;;;8.70;94.60;;;;;;4932745;29;20023;-66
2021/05/01 01:18:13;;;;;;;29.17;17.42;;;8.70;94.50;;;;;;4935648;29;20042;-66
2021/05/01 01:20:39;;;;;;;24.25;18.95;;;8.60;94.50;;;;;;4934147;29;20052;-65
2021/05/01 01:23:05;;;;;;;20.92;17.95;;;8.60;94.70;;;;;;4933844;29;20114;-64
2021/05/01 01:25:32;;;;;;;23.30;18.83;;;8.50;94.80;;;;;;4934416;29;20059;-66
2021/05/01 01:27:59;;;;;;;26.40;18.48;;;8.40;94.90;;;;;;4935214;29;20369;-66
2021/05/01 01:30:30;;;;;;;23.33;18.55;;;8.40;94.90;;;;;;4933790;29;20420;-67
2021/05/01 01:33:04;;;;;;;23.90;18.88;;;8.30;95.00;;;;;;4935461;29;20477;-65
2021/05/01 01:35:30;;;;;;;25.17;21.00;;;8.30;95.10;;;;;;4934844;29;20484;-64
2021/05/01 01:37:56;;;;;;;26.20;19.05;;;8.20;95.10;;;;;;4935775;29;20043;-65
2021/05/01 01:40:22;;;;;;;29.80;19.63;;;8.20;95.10;;;;;;4935631;29;20064;-66
2021/05/01 01:42:48;;;;;;;24.65;19.38;;;8.20;95.10;;;;;;4934873;29;20023;-66
2021/05/01 01:45:17;;;;;;;26.17;19.00;;;8.20;95.20;;;;;;4935906;29;20403;-66
2021/05/01 01:47:43;;;;;;;21.30;18.30;;;8.10;95.10;;;;;;4935534;29;20102;-66
2021/05/01 01:50:12;;;;;;;21.92;17.45;;;8.10;95.20;;;;;;4933702;29;20496;-66
2021/05/01 01:52:39;;;;;;;22.10;18.63;;;8.10;95.30;;;;;;4935155;29;20392;-66
2021/05/01 01:55:10;;;;;;;23.38;17.65;;;8.10;95.60;;;;;;4935480;29;20024;-66
2021/05/01 01:57:36;;;;;;;20.45;18.10;;;8.10;95.30;;;;;;4934662;29;20023;-66
2021/05/01 02:00:06;;;;;;;23.45;17.85;;;8.10;95.30;;;;;;4933925;29;20028;-66
2021/05/01 02:02:32;;;;;;;23.77;17.10;;;8.10;95.30;;;;;;4935000;29;20024;-65
2021/05/01 02:04:57;;;;;;;25.88;16.95;;;8.20;95.20;;;;;;4933347;29;20030;-66
2021/05/01 02:07:23;;;;;;;23.13;17.85;;;8.10;95.20;;;;;;4935376;29;20112;-66
2021/05/01 02:09:48;;;;;;;22.98;16.55;;;8.20;95.30;;;;;;4934929;29;20433;-65
2021/05/01 02:12:14;;;;;;;23.73;17.58;;;8.10;95.20;;;;;;4934651;29;20362;-65
2021/05/01 02:14:39;;;;;;;25.50;16.40;;;8.20;95.30;;;;;;4933912;29;20416;-65
2021/05/01 02:17:05;;;;;;;19.88;16.10;;;8.20;95.30;;;;;;4935220;29;20110;-65
2021/05/01 02:19:31;;;;;;;17.88;14.35;;;8.20;95.30;;;;;;4934369;29;20034;-66
2021/05/01 02:21:56;;;;;;;22.52;14.93;;;8.20;95.20;;;;;;4935386;29;20023;-65
2021/05/01 02:24:22;;;;;;;21.88;14.55;;;8.20;95.30;;;;;;4935268;29;20016;-66
2021/05/01 02:26:48;;;;;;;18.65;13.48;;;8.10;95.20;;;;;;4934286;29;20464;-66
2021/05/01 02:29:13;;;;;;;16.63;12.77;;;8.10;95.10;;;;;;4938586;29;20370;-66
2021/05/01 02:31:39;;;;;;;18.70;12.80;;;8.00;95.10;;;;;;4938033;29;20023;-65
2021/05/01 02:34:05;;;;;;;14.88;12.60;;;8.00;95.20;;;;;;4938751;29;20054;-66
2021/05/01 02:36:31;;;;;;;16.55;12.52;;;7.90;95.20;;;;;;4938328;29;20465;-66
2021/05/01 02:38:56;;;;;;;16.83;12.88;;;7.90;95.20;;;;;;4936625;29;20035;-65
2021/05/01 02:41:23;;;;;;;18.45;13.63;;;7.90;95.30;;;;;;4938529;29;20020;-66
2021/05/01 02:43:49;;;;;;;18.67;13.57;;;7.80;95.30;;;;;;4938144;29;20358;-66
2021/05/01 02:46:15;;;;;;;18.90;13.60;;;7.80;95.30;;;;;;4937987;29;20031;-66
2021/05/01 02:48:40;;;;;;;17.02;12.48;;;7.80;95.30;;;;;;4938373;29;20116;-65
2021/05/01 02:51:06;;;;;;;18.80;14.43;;;7.80;95.40;;;;;;4938244;29;20054;-65
2021/05/01 02:53:31;;;;;;;18.95;13.05;;;7.70;95.40;;;;;;4937447;29;20114;-65
2021/05/01 02:55:57;;;;;;;14.75;12.77;;;7.70;95.40;;;;;;4938342;29;20020;-66
2021/05/01 02:58:23;;;;;;;17.25;12.38;;;7.60;95.50;;;;;;4938225;29;20027;-66
2021/05/01 03:00:48;;;;;;;19.30;13.15;;;7.50;95.80;;;;;;4935655;29;20052;-66
2021/05/01 03:03:14;;;;;;;20.00;13.05;;;7.50;95.50;;;;;;4936996;29;20027;-66
2021/05/01 03:05:39;;;;;;;16.13;12.30;;;7.40;95.60;;;;;;4937839;29;20031;-66
2021/05/01 03:08:05;;;;;;;18.15;13.20;;;7.40;95.70;;;;;;4937701;29;20609;-66
2021/05/01 03:10:31;;;;;;;20.02;13.05;;;7.40;95.80;;;;;;4937566;29;20028;-66
2021/05/01 03:12:56;;;;;;;19.33;12.52;;;7.40;95.90;;;;;;4938086;29;20039;-66
2021/05/01 03:15:23;;;;;;;15.35;12.25;;;7.40;95.90;;;;;;4937180;29;20102;-66
2021/05/01 03:17:49;;;;;;;19.20;12.73;;;7.40;95.90;;;;;;4936355;29;20023;-66
2021/05/01 03:20:16;;;;;;;15.95;12.55;;;7.40;95.90;;;;;;4936614;29;20075;-66
2021/05/01 03:22:41;;;;;;;14.95;12.38;;;7.30;95.90;;;;;;4937025;29;20031;-66
2021/05/01 03:25:09;;;;;;;20.55;11.95;;;7.30;95.90;;;;;;4937762;29;20027;-66
2021/05/01 03:27:35;;;;;;;15.43;12.00;;;7.20;96.00;;;;;;4937387;29;20047;-67
2021/05/01 03:30:02;;;;;;;20.17;13.10;;;7.10;96.00;;;;;;4935862;29;20031;-66
2021/05/01 03:32:27;;;;;;;15.27;12.70;;;7.10;96.10;;;;;;4936404;29;20028;-66
2021/05/01 03:34:53;;;;;;;22.50;14.00;;;7.00;96.10;;;;;;4936733;29;20130;-66
2021/05/01 03:37:19;;;;;;;17.25;14.20;;;7.00;96.10;;;;;;4936213;29;20063;-67
2021/05/01 03:39:44;;;;;;;17.40;13.63;;;6.90;96.10;;;;;;4935310;29;20083;-67
2021/05/01 03:42:10;;;;;;;20.90;14.38;;;6.90;96.20;;;;;;4936764;29;20070;-66
2021/05/01 03:44:36;;;;;;;16.25;14.57;;;6.80;96.20;;;;;;4937147;29;20023;-66
2021/05/01 03:47:01;;;;;;;18.75;14.60;;;6.80;96.30;;;;;;4937263;29;20039;-66
2021/05/01 03:49:27;;;;;;;17.05;15.07;;;6.70;96.30;;;;;;4936622;29;20103;-66
2021/05/01 03:51:52;;;;;;;19.70;14.98;;;6.70;96.30;;;;;;4937120;29;20059;-66
2021/05/01 03:54:18;;;;;;;22.75;15.40;;;6.60;96.30;;;;;;4937271;29;20078;-67
2021/05/01 03:56:43;;;;;;;19.13;16.98;;;6.60;96.40;;;;;;4936234;29;20024;-66
2021/05/01 03:59:09;;;;;;;20.65;15.73;;;6.60;96.40;;;;;;4937109;29;20071;-66
2021/05/01 04:01:34;;;;;;;22.40;16.80;;;6.60;96.50;;;;;;4936593;29;20043;-67
2021/05/01 04:04:00;;;;;;;22.55;16.17;;;6.60;96.50;;;;;;4936523;29;20377;-66
2021/05/01 04:06:26;;;;;;;23.25;16.92;;;6.50;96.50;;;;;;4937215;29;20114;-66
2021/05/01 04:08:51;;;;;;;29.77;17.73;;;6.50;96.50;;;;;;4936726;29;20023;-66
2021/05/01 04:11:17;;;;;;;21.90;17.02;;;6.50;96.50;;;;;;4936328;29;20035;-65
2021/05/01 04:13:48;;;;;;;21.88;18.20;;;6.50;96.60;;;;;;4936586;29;20119;-65
2021/05/01 04:16:17;;;;;;;24.02;18.45;;;6.50;96.80;;;;;;4936831;29;20107;-65
2021/05/01 04:18:44;;;;;;;25.88;18.75;;;6.40;96.60;;;;;;4935780;29;20027;-65
2021/05/01 04:21:10;;;;;;;22.50;19.50;;;6.40;96.70;;;;;;4935405;29;20024;-65
2021/05/01 04:23:36;;;;;;;22.15;18.30;;;6.40;96.70;;;;;;4936445;29;20059;-65
2021/05/01 04:26:02;;;;;;;21.88;19.30;;;6.40;96.70;;;;;;4936055;29;20028;-65
2021/05/01 04:28:28;;;;;;;20.92;17.67;;;6.40;96.80;;;;;;4935424;29;20400;-65
2021/05/01 04:30:57;;;;;;;22.98;17.98;;;6.40;96.80;;;;;;4936038;29;20020;-66
2021/05/01 04:33:23;;;;;;;20.42;18.15;;;6.40;96.80;;;;;;4935813;29;20376;-65
2021/05/01 04:35:49;;;;;;;22.20;17.60;;;6.30;96.80;;;;;;4936235;29;20493;-65
2021/05/01 04:38:16;;;;;;;24.13;18.20;;;6.30;96.80;;;;;;4935858;29;20030;-65
2021/05/01 04:40:42;;;;;;;21.13;17.63;;;6.30;96.80;;;;;;4936000;29;20054;-65
2021/05/01 04:43:10;;;;;;;22.58;16.70;;;6.30;96.80;;;;;;4935333;29;20031;-65
2021/05/01 04:45:36;;;;;;;20.48;16.75;;;6.30;96.80;;;;;;4935258;29;20032;-65
2021/05/01 04:48:02;;;;;;;25.75;17.10;;;6.40;96.90;;;;;;4934990;29;20087;-65
2021/05/01 04:50:28;;;;;;;22.63;17.17;;;6.40;96.80;;;;;;4934793;29;20086;-65
2021/05/01 04:52:53;;;;;;;21.98;17.42;;;6.40;96.80;;;;;;4933964;29;20040;-65
2021/05/01 04:55:19;;;;;;;24.45;17.40;;;6.40;96.70;;;;;;4936074;29;20055;-65
2021/05/01 04:57:47;;;;;;;19.27;17.23;;;6.40;96.70;;;;;;4935869;29;20035;-65
2021/05/01 05:00:15;;;;;;;26.50;17.10;;;6.40;96.70;;;;;;4935108;29;20095;-65
2021/05/01 05:02:41;;;;;;;29.45;17.70;;;6.50;96.70;;;;;;4935704;29;20028;-65
2021/05/01 05:05:08;;;;;;;30.40;18.80;;;6.50;96.70;;;;;;4935948;29;20038;-65
2021/05/01 05:07:34;;;;;;;22.55;17.60;;;6.50;96.70;;;;;;4934829;29;20058;-65
2021/05/01 05:10:00;;;;;;;24.30;18.73;;;6.50;96.70;;;;;;4935855;29;20476;-65
2021/05/01 05:12:25;;;;;;;22.63;17.55;;;6.50;96.70;;;;;;4936003;29;20027;-65
2021/05/01 05:14:51;;;;;;;20.77;18.33;;;6.50;96.70;;;;;;4934792;29;20086;-65
2021/05/01 05:17:17;;;;;;;26.27;18.35;;;6.50;96.70;;;;;;4934528;29;20027;-66
2021/05/01 05:19:43;;;;;;;21.20;17.27;;;6.60;96.70;;;;;;4935301;29;20488;-66
2021/05/01 05:22:08;;;;;;;25.55;18.58;;;6.60;96.70;;;;;;4935488;29;20078;-66
2021/05/01 05:24:38;;;;;;;25.92;18.90;;;6.60;96.70;;;;;;4935541;29;20491;-66
2021/05/01 05:27:04;;;;;;;23.10;18.10;;;6.60;96.70;;;;;;4934459;29;20111;-65
2021/05/01 05:29:31;;;;;;;19.90;17.60;;;6.60;96.70;;;;;;4933670;29;20151;-66
2021/05/01 05:31:57;;;;;;;20.55;17.95;;;6.60;96.70;;;;;;4935508;29;20023;-66
2021/05/01 05:34:22;;;;;;;23.63;18.42;;;6.60;96.70;;;;;;4935612;29;20038;-66
2021/05/01 05:36:48;;;;;;;27.63;18.65;;;6.70;96.70;;;;;;4934677;29;20023;-66
2021/05/01 05:39:15;;;;;;;22.52;19.00;;;6.70;96.70;;;;;;4935465;29;20028;-66
2021/05/01 05:41:41;;;;;;;22.50;18.23;;;6.80;96.60;;;;;;4934647;29;20016;-65
2021/05/01 05:44:07;;;;;;;21.33;18.42;;;6.80;96.60;;;;;;4935484;29;20471;-65
2021/05/01 05:46:33;;;;;;;32.15;19.88;;;6.90;96.60;;;;;;4935198;29;20086;-65
2021/05/01 05:48:58;;;;;;;27.23;19.23;;;6.90;96.60;;;;;;4935034;29;20423;-65
2021/05/01 05:51:24;;;;;;;33.47;18.25;;;6.90;96.50;;;;;;4935451;29;20086;-66
2021/05/01 05:53:49;;;;;;;29.63;19.92;;;6.90;96.50;;;;;;4934998;29;20040;-67
2021/05/01 05:56:16;;;;;;;29.50;20.33;;;7.00;96.60;;;;;;4933476;29;20477;-66
2021/05/01 05:58:42;;;;;;;24.15;18.85;;;7.10;96.50;;;;;;4934048;29;20052;-66
2021/05/01 06:01:08;;;;;;;24.17;19.00;;;7.10;96.40;;;;;;4934636;29;20107;-66
2021/05/01 06:03:36;;;;;;;23.50;19.73;;;7.20;96.40;;;;;;4937236;29;20103;-65
2021/05/01 06:06:13;;;;;;;25.02;20.10;;;7.20;96.30;;;;;;4938520;29;20428;-65
2021/05/01 06:08:39;;;;;;;27.70;20.23;;;7.30;96.20;;;;;;4938636;29;20032;-66
2021/05/01 06:11:05;;;;;;;24.38;19.33;;;7.40;96.20;;;;;;4937080;29;20020;-66
2021/05/01 06:13:33;;;;;;;25.33;18.17;;;7.40;96.10;;;;;;4936789;29;20023;-67
2021/05/01 06:16:00;;;;;;;25.98;18.73;;;7.50;96.00;;;;;;4935776;29;20023;-67
2021/05/01 06:18:32;;;;;;;31.05;21.15;;;7.50;96.00;;;;;;4938560;29;20034;-66
2021/05/01 06:20:58;;;;;;;25.70;20.60;;;7.60;96.00;;;;;;4938766;29;20043;-65
2021/05/01 06:23:24;;;;;;;23.27;19.50;;;7.60;95.80;;;;;;4938959;29;20031;-65
2021/05/01 06:25:51;;;;;;;26.33;20.33;;;7.70;95.80;;;;;;4937403;29;20433;-65
2021/05/01 06:28:16;;;;;;;22.13;18.90;;;7.70;95.80;;;;;;4937545;29;20027;-66
2021/05/01 06:30:43;;;;;;;25.45;21.48;;;7.80;95.70;;;;;;4937922;29;20030;-67
2021/05/01 06:33:11;;;;;;;24.80;22.05;;;7.80;95.50;;;;;;4938715;29;20119;-66
2021/05/01 06:35:39;;;;;;;26.80;20.45;;;7.90;95.60;;;;;;4938385;29;20057;-65
2021/05/01 06:38:05;;;;;;;23.50;19.83;;;8.00;95.50;;;;;;4937743;29;20114;-66
2021/05/01 06:40:33;;;;;;;26.63;19.23;;;8.10;95.40;;;;;;4938189;29;20031;-67
2021/05/01 06:43:06;;;;;;;23.58;20.25;;;8.20;95.30;;;;;;4938234;29;20028;-66
2021/05/01 06:45:34;;;;;;;27.50;21.42;;;8.30;95.20;;;;;;4936098;29;20027;-65
2021/05/01 06:48:02;;;;;;;28.17;19.45;;;8.40;95.10;;;;;;4938341;29;20026;-66
2021/05/01 06:50:29;;;;;;;24.15;19.48;;;8.40;95.00;;;;;;4937209;29;20016;-66
2021/05/01 06:52:58;;;;;;;21.08;18.67;;;8.50;95.00;;;;;;4936809;29;20152;-66
2021/05/01 06:55:27;;;;;;;21.65;18.02;;;8.50;94.90;;;;;;4938237;29;20075;-65
2021/05/01 06:57:54;;;;;;;23.00;19.25;;;8.70;94.90;;;;;;4937751;29;20046;-66
2021/05/01 07:00:22;;;;;;;25.13;18.50;;;8.80;94.70;;;;;;4937151;29;20056;-66
2021/05/01 07:02:52;;;;;;;19.90;16.85;;;9.00;94.60;;;;;;4937902;29;20171;-66
2021/05/01 07:05:20;;;;;;;17.92;14.73;;;9.20;94.30;;;;;;4937967;29;20024;-66
2021/05/01 07:07:47;;;;;;;18.00;14.85;;;9.30;94.00;;;;;;4935925;29;20496;-67
2021/05/01 07:10:14;;;;;;;21.08;16.08;;;9.40;94.00;;;;;;4937896;29;20078;-67
2021/05/01 07:12:41;;;;;;;19.85;15.13;;;9.60;93.90;;;;;;4937451;29;20464;-67
2021/05/01 07:15:09;;;;;;;20.17;14.85;;;9.60;93.70;;;;;;4936273;29;20118;-66
2021/05/01 07:17:35;;;;;;;18.85;14.27;;;9.60;93.50;;;;;;4937561;29;20031;-67
2021/05/01 07:20:02;;;;;;;18.00;13.27;;;9.60;93.40;;;;;;4937219;29;20472;-66
2021/05/01 07:22:29;;;;;;;17.95;12.48;;;9.50;93.20;;;;;;4938128;29;20130;-66
2021/05/01 07:24:55;;;;;;;16.00;11.38;;;9.60;93.20;;;;;;4937497;29;20032;-66
2021/05/01 07:27:30;;;;;;;15.65;9.70;;;9.70;93.00;;;;;;4936833;29;20035;-67
2021/05/01 07:30:00;;;;;;;12.52;9.85;;;9.70;92.30;;;;;;4937137;29;20055;-67
2021/05/01 07:32:29;;;;;;;16.48;10.85;;;9.90;92.40;;;;;;4937582;29;20051;-65
2021/05/01 07:34:57;;;;;;;11.52;9.68;;;10.10;92.20;;;;;;4936069;29;20032;-67
2021/05/01 07:37:26;;;;;;;13.00;8.35;;;10.40;92.00;;;;;;4937065;29;20038;-67
2021/05/01 07:39:52;;;;;;;14.10;6.18;;;10.40;91.40;;;;;;4937269;29;20056;-67
2021/05/01 07:42:19;;;;;;;12.90;5.80;;;10.40;90.70;;;;;;4936821;29;20114;-67
2021/05/01 07:44:46;;;;;;;9.43;7.00;;;10.50;90.60;;;;;;4937041;29;20036;-67
2021/05/01 07:47:15;;;;;;;12.52;7.32;;;10.60;90.40;;;;;;4937057;29;20122;-67
2021/05/01 07:49:41;;;;;;;11.88;7.82;;;10.80;90.20;;;;;;4935331;29;20472;-68
2021/05/01 07:52:07;;;;;;;10.10;7.78;;;10.90;90.00;;;;;;4935490;29;20043;-68
2021/05/01 07:54:39;;;;;;;14.65;9.10;;;10.90;89.50;;;;;;4935302;29;20111;-66
2021/05/01 07:57:05;;;;;;;13.27;8.45;;;11.20;89.40;;;;;;4936378;29;20051;-66
2021/05/01 07:59:31;;;;;;;16.17;8.55;;;11.30;88.50;;;;;;4937015;29;20031;-67
2021/05/01 08:01:57;;;;;;;13.45;8.02;;;11.40;87.80;;;;;;4936812;29;20047;-66
2021/05/01 08:04:22;;;;;;;11.70;7.13;;;11.40;86.20;;;;;;4936385;29;20027;-67
2021/05/01 08:06:48;;;;;;;8.90;6.80;;;11.30;86.70;;;;;;4936686;29;20044;-67
2021/05/01 08:09:14;;;;;;;10.05;7.13;;;11.30;86.10;;;;;;4934843;29;20027;-68
2021/05/01 08:11:39;;;;;;;9.95;6.63;;;11.30;86.30;;;;;;4935448;29;20448;-66
2021/05/01 08:14:05;;;;;;;13.07;8.27;;;11.40;85.40;;;;;;4936631;29;20036;-67
2021/05/01 08:16:30;;;;;;;11.13;6.80;;;11.40;84.80;;;;;;4936035;29;20082;-67
2021/05/01 08:18:57;;;;;;;10.77;6.75;;;11.30;81.50;;;;;;4936842;29;20024;-67
2021/05/01 08:21:22;;;;;;;9.77;5.47;;;11.10;82.30;;;;;;4936758;29;20023;-67
2021/05/01 08:23:48;;;;;;;9.02;5.45;;;10.90;82.20;;;;;;4935058;29;20031;-67
2021/05/01 08:26:14;;;;;;;13.65;5.90;;;10.70;82.60;;;;;;4931969;29;20488;-68
2021/05/01 08:28:39;;;;;;;8.52;5.82;;;10.60;83.50;;;;;;4934954;29;20031;-67
2021/05/01 08:31:05;;;;;;;12.43;5.65;;;10.60;83.30;;;;;;4934468;29;20387;-66
2021/05/01 08:33:32;;;;;;;8.05;6.03;;;10.70;83.10;;;;;;4936340;29;20046;-66
2021/05/01 08:35:57;;;;;;;11.48;5.78;;;10.80;82.30;;;;;;4934685;29;20428;-67
2021/05/01 08:38:24;;;;;;;12.07;5.88;;;11.10;81.90;;;;;;4935312;29;20040;-66
2021/05/01 08:40:50;;;;;;;8.30;6.57;;;11.30;81.70;;;;;;4935955;29;20028;-66
2021/05/01 08:43:16;;;;;;;12.10;7.60;;;11.60;80.90;;;;;;4935576;29;20028;-67
2021/05/01 08:45:45;;;;;;;9.40;6.07;;;11.90;79.20;;;;;;4934313;29;20030;-68
2021/05/01 08:48:11;;;;;;;9.13;6.20;;;12.10;79.00;;;;;;4936111;29;20039;-67
2021/05/01 08:50:41;;;;;;;13.05;7.55;;;12.30;77.90;;;;;;4934529;29;20362;-67
2021/05/01 08:53:07;;;;;;;11.88;5.70;;;12.40;77.90;;;;;;4935315;29;20035;-67
2021/05/01 08:55:37;;;;;;;11.90;5.28;;;12.60;76.80;;;;;;4934475;29;20028;-66
2021/05/01 08:58:04;;;;;;;6.25;4.82;;;12.80;75.50;;;;;;4936337;29;20016;-65
2021/05/01 09:00:32;;;;;;;8.48;5.20;;;13.00;74.00;;;;;;4935093;29;20055;-66
2021/05/01 09:03:01;;;;;;;10.30;4.95;;;13.10;73.00;;;;;;4935516;29;20031;-66
2021/05/01 09:05:28;;;;;;;9.02;4.97;;;13.10;72.50;;;;;;4935240;29;20028;-66
2021/05/01 09:07:56;;;;;;;7.28;4.60;;;13.00;71.90;;;;;;4934460;29;20429;-67
2021/05/01 09:10:23;;;;;;;8.02;4.70;;;13.00;70.90;;;;;;4934091;29;20047;-67
2021/05/01 09:12:49;;;;;;;6.28;4.15;;;12.80;71.10;;;;;;4934961;29;20031;-66
2021/05/01 09:15:24;;;;;;;8.07;4.47;;;12.80;72.80;;;;;;4935914;29;20052;-66
2021/05/01 09:18:00;;;;;;;7.90;4.60;;;12.80;73.00;;;;;;4935056;29;20110;-66
2021/05/01 09:20:26;;;;;;;7.38;5.03;;;12.70;72.60;;;;;;4935188;29;20477;-66
2021/05/01 09:22:56;;;;;;;9.82;5.22;;;12.70;72.00;;;;;;4935347;29;20024;-66
2021/05/01 09:25:23;;;;;;;11.90;5.15;;;12.70;70.60;;;;;;4935944;29;20496;-66
2021/05/01 09:28:02;;;;;;;6.85;4.65;;;12.80;70.70;;;;;;4934830;29;20543;-66
2021/05/01 09:30:32;;;;;;;10.15;5.38;;;12.70;68.80;;;;;;4934289;29;20023;-65
2021/05/01 09:33:19;;;;;;;10.40;4.65;;;12.70;69.30;;;;;;4935359;29;20051;-66
2021/05/01 09:35:53;;;;;;;7.13;4.22;;;12.60;68.50;;;;;;4933671;29;20050;-65
2021/05/01 09:38:18;;;;;;;5.55;4.57;;;12.50;68.30;;;;;;4924970;29;20075;-64
2021/05/01 09:40:46;;;;;;;8.07;5.13;;;12.40;67.40;;;;;;4934564;29;20031;-66
2021/05/01 09:43:12;;;;;;;7.15;4.60;;;12.30;68.70;;;;;;4935481;29;20457;-66
2021/05/01 09:45:38;;;;;;;8.40;4.97;;;12.10;69.50;;;;;;4935214;29;20058;-65
2021/05/01 09:48:20;;;;;;;8.02;5.35;;;12.00;70.80;;;;;;4932590;29;20126;-65
2021/05/01 09:50:47;;;;;;;;;;;11.80;71.80;;;;;;4935261;29;20147;-66
2021/05/01 09:53:16;;;;;;;8.13;4.72;;;11.60;72.70;;;;;;4934098;29;19922;-67
2021/05/01 09:55:51;;;;;;;6.43;4.88;;;11.50;73.80;;;;;;4932947;29;20023;-67
2021/05/01 09:58:28;;;;;;;5.80;4.72;;;11.40;73.20;;;;;;4935334;29;20028;-67
2021/05/01 10:01:12;;;;;;;6.55;4.95;;;11.30;72.90;;;;;;4934489;29;20048;-69
2021/05/01 10:03:38;;;;;;;6.72;4.80;;;11.30;73.10;;;;;;4933031;29;20024;-67
2021/05/01 10:06:06;;;;;;;7.20;4.68;;;11.40;73.00;;;;;;4935196;29;20032;-68
2021/05/01 10:08:33;;;;;;;9.38;4.75;;;11.60;73.20;;;;;;4934693;29;20500;-66
2021/05/01 10:11:22;;;;;;;8.23;4.78;;;11.80;73.00;;;;;;4933370;29;20419;-67
2021/05/01 10:13:53;;;;;;;10.52;4.78;;;12.10;71.60;;;;;;4934757;29;20032;-66
2021/05/01 10:16:19;;;;;;;6.32;5.07;;;12.50;71.10;;;;;;4934164;29;20035;-66
2021/05/01 10:19:09;;;;;;;7.15;5.00;;;12.80;70.10;;;;;;4934727;29;20031;-66
2021/05/01 10:21:37;;;;;;;8.30;4.80;;;13.20;69.30;;;;;;4934434;29;20024;-66
2021/05/01 10:24:04;;;;;;;8.88;5.18;;;13.40;68.50;;;;;;4934218;29;20556;-66
2021/05/01 10:26:50;;;;;;;8.90;5.25;;;13.40;68.30;;;;;;4934969;29;20095;-67
2021/05/01 10:29:43;;;;;;;6.65;4.50;;;13.30;68.50;;;;;;4935023;29;20035;-65
2021/05/01 10:32:30;;;;;;;5.15;4.30;;;13.10;68.60;;;;;;4931989;29;20066;-67
2021/05/01 10:35:00;;;;;;;7.70;4.40;;;12.90;67.40;;;;;;4934995;29;20040;-67
2021/05/01 10:37:36;;;;;;;8.50;4.55;;;12.60;67.80;;;;;;4934312;29;20078;-66
2021/05/01 10:40:02;;;;;;;5.88;4.15;;;12.50;68.40;;;;;;4934616;29;20103;-65
2021/05/01 10:42:28;;;;;;;8.10;4.60;;;12.30;68.20;;;;;;4933968;29;20048;-68
2021/05/01 10:45:03;;;;;;;8.18;4.22;;;12.20;67.80;;;;;;4933715;29;20040;-65
2021/05/01 10:47:29;;;;;;;6.70;4.10;;;12.10;69.00;;;;;;4934155;29;20050;-66
2021/05/01 10:49:55;;;;;;;8.55;3.85;;;12.00;69.50;;;;;;4935916;29;20485;-68
2021/05/01 10:52:22;;;;;;;5.93;3.97;;;11.80;69.70;;;;;;4931112;29;20067;-68
2021/05/01 10:55:01;;;;;;;5.88;4.50;;;11.70;70.10;;;;;;4936508;29;20036;-67
2021/05/01 10:57:28;;;;;;;7.78;4.35;;;11.60;70.80;;;;;;4936978;29;20058;-68
2021/05/01 11:00:03;;;;;;;5.38;3.63;;;11.60;71.60;;;;;;4935548;29;20027;-68
2021/05/01 11:02:38;;;;;;;5.68;3.70;;;11.60;71.10;;;;;;4937946;29;20378;-69
2021/05/01 11:05:13;;;;;;;8.68;3.88;;;11.70;70.70;;;;;;4937035;29;20019;-68
2021/05/01 11:07:53;;;;;;;5.63;3.83;;;11.90;70.00;;;;;;4935725;29;20441;-67
2021/05/01 11:10:19;;;;;;;7.95;3.60;;;12.00;68.60;;;;;;4936058;29;20099;-67
2021/05/01 11:12:53;;;;;;;7.35;3.70;;;12.10;67.90;;;;;;4935416;29;20055;-67
2021/05/01 11:15:22;;;;;;;5.38;3.20;;;12.10;66.80;;;;;;4938809;29;20031;-68
2021/05/01 11:18:03;;;;;;;7.30;3.50;;;12.20;67.00;;;;;;4918396;29;20473;-67
2021/05/01 11:20:31;;;;;;;5.32;3.13;;;12.50;66.30;;;;;;4925884;29;20103;-66
2021/05/01 11:22:57;;;;;;;9.15;3.45;;;12.70;66.30;;;;;;4936944;29;20028;-66
2021/05/01 11:25:23;;;;;;;6.13;3.20;;;13.10;65.00;;;;;;4935858;29;20032;-66
2021/05/01 11:27:51;;;;;;;4.65;3.00;;;13.40;61.90;;;;;;4936663;29;20016;-66
2021/05/01 11:30:21;;;;;;;4.55;3.45;;;13.50;62.40;;;;;;4937484;29;20028;-67
2021/05/01 11:32:47;;;;;;;5.10;3.90;;;13.70;62.70;;;;;;4935992;29;20099;-67
2021/05/01 11:35:15;;;;;;;5.68;3.90;;;13.90;61.30;;;;;;4936536;29;20484;-68
2021/05/01 11:37:51;;;;;;;5.40;3.70;;;13.80;61.50;;;;;;4937234;29;20153;-67
2021/05/01 11:40:20;;;;;;;6.72;3.92;;;13.80;60.60;;;;;;4936675;29;20024;-67
2021/05/01 11:42:46;;;;;;;6.38;4.38;;;13.70;60.10;;;;;;4936905;29;20028;-65
2021/05/01 11:45:19;;;;;;;7.75;4.60;;;13.50;60.30;;;;;;4937170;29;20056;-65
2021/05/01 11:47:49;;;;;;;5.88;4.18;;;13.20;61.00;;;;;;4934255;29;20059;-66
2021/05/01 11:50:17;;;;;;;5.88;4.07;;;13.00;61.30;;;;;;4935993;29;20142;-68
2021/05/01 11:53:01;;;;;;;5.80;3.78;;;12.90;61.60;;;;;;4936948;29;20027;-66
2021/05/01 11:55:49;;;;;;;5.15;3.97;;;12.70;61.80;;;;;;4936082;29;20036;-66
2021/05/01 11:58:31;;;;;;;6.10;4.03;;;12.60;61.60;;;;;;4933946;29;20028;-66
2021/05/01 12:01:15;;;;;;;;;;;12.50;62.60;;;;;;4933001;29;20036;-68
2021/05/01 12:03:52;;;;;;;8.30;3.80;;;12.50;63.20;;;;;;4935666;29;20378;-69
2021/05/01 12:06:25;;;;;;;6.20;3.50;;;12.50;62.70;;;;;;4936316;29;20488;-66
2021/05/01 12:08:51;;;;;;;3.50;3.15;;;12.60;61.70;;;;;;4935588;29;20036;-68
2021/05/01 12:11:19;;;;;;;5.20;2.58;;;12.60;59.70;;;;;;4921743;29;20034;-65
2021/05/01 12:13:47;;;;;;;5.53;2.88;;;12.60;59.70;;;;;;4916303;29;20043;-67
2021/05/01 12:16:19;;;;;;;4.13;3.03;;;12.70;59.80;;;;;;4917178;29;20075;-67
2021/05/01 12:18:50;;;;;;;4.13;2.75;;;12.90;58.90;;;;;;4917363;29;20035;-67
2021/05/01 12:21:20;;;;;;;3.67;2.72;;;13.00;58.90;;;;;;4917713;29;20052;-67
2021/05/01 12:23:48;;;;;;;3.63;2.88;;;13.20;59.00;;;;;;4916738;29;20033;-67
2021/05/01 12:26:32;;;;;;;4.03;3.17;;;13.50;59.60;;;;;;4917611;29;20028;-67
2021/05/01 12:29:24;;;;;;;5.43;3.60;;;13.80;60.10;;;;;;4917537;29;20524;-67
2021/05/01 12:31:51;;;;;;;8.35;3.10;;;14.00;58.60;;;;;;4916795;29;20028;-67
2021/05/01 12:34:18;;;;;;;6.40;3.10;;;14.10;58.70;;;;;;4916053;29;20115;-67
2021/05/01 12:36:46;;;;;;;4.65;3.03;;;14.10;57.60;;;;;;4916553;29;20107;-67
2021/05/01 12:39:12;;;;;;;6.30;4.03;;;14.20;58.20;;;;;;4915945;29;20134;-67
2021/05/01 12:41:40;;;;;;;5.80;3.28;;;14.30;59.50;;;;;;4917046;29;20024;-67
2021/05/01 12:44:07;;;;;;;5.70;3.15;;;14.40;58.60;;;;;;4915170;29;20028;-67
2021/05/01 12:46:36;;;;;;;4.78;3.05;;;14.40;59.30;;;;;;4916877;29;20099;-67